createdAt,value
2022-07-30T00:02:02.243Z,16.15
2022-07-30T00:04:29.919Z,15.99
2022-07-30T00:06:57.899Z,16.08
2022-07-30T00:09:25.756Z,16.03
2022-07-30T00:11:53.465Z,16.08
2022-07-30T00:14:21.139Z,16.11
2022-07-30T00:16:50.476Z,16.06
2022-07-30T00:19:18.157Z,16.04
2022-07-30T00:21:50.439Z,16.04
2022-07-30T00:24:18.508Z,16.03
2022-07-30T00:26:46.200Z,16.06
2022-07-30T00:29:14.139Z,16.08
2022-07-30T00:31:41.988Z,16.04
2022-07-30T00:34:12.957Z,15.99
2022-07-30T00:36:40.759Z,16.00
2022-07-30T00:39:08.484Z,15.95
2022-07-30T00:41:38.011Z,15.99
2022-07-30T00:44:06.078Z,15.99
2022-07-30T00:46:33.775Z,15.99
2022-07-30T00:49:01.500Z,15.96
2022-07-30T00:51:31.041Z,15.92
2022-07-30T00:54:01.630Z,15.96
2022-07-30T00:56:29.297Z,15.90
2022-07-30T00:58:56.978Z,15.95
2022-07-30T01:01:24.688Z,16.00
2022-07-30T01:03:52.507Z,15.95
2022-07-30T01:06:21.249Z,16.00
2022-07-30T01:08:50.272Z,15.99
2022-07-30T01:11:18.132Z,15.93
2022-07-30T01:13:46.497Z,15.93
2022-07-30T01:16:14.866Z,15.89
2022-07-30T01:19:12.414Z,15.87
2022-07-30T01:21:45.060Z,15.87
2022-07-30T01:24:23.375Z,15.88
2022-07-30T01:26:53.104Z,15.90
2022-07-30T01:29:22.127Z,15.86
2022-07-30T01:31:51.520Z,15.90
2022-07-30T01:34:20.220Z,15.87
2022-07-30T01:36:48.457Z,15.91
2022-07-30T01:39:20.456Z,15.97
2022-07-30T01:41:51.619Z,16.01
2022-07-30T01:44:23.766Z,16.01
2022-07-30T01:46:54.803Z,16.00
2022-07-30T01:49:23.967Z,16.00
2022-07-30T01:51:52.885Z,16.00
2022-07-30T01:54:22.963Z,15.98
2022-07-30T01:56:55.126Z,15.99
2022-07-30T01:59:26.034Z,15.93
2022-07-30T02:01:53.867Z,15.86
2022-07-30T02:04:21.703Z,15.91
2022-07-30T02:07:00.046Z,15.90
2022-07-30T02:09:32.429Z,15.88
2022-07-30T02:12:20.443Z,15.81
2022-07-30T02:14:53.272Z,15.85
2022-07-30T02:17:30.020Z,15.83
2022-07-30T02:20:00.189Z,15.86
2022-07-30T02:22:32.390Z,15.78
2022-07-30T02:25:02.672Z,15.61
2022-07-30T02:27:33.378Z,15.76
2022-07-30T02:30:04.571Z,15.67
2022-07-30T02:32:38.731Z,15.60
2022-07-30T02:35:12.250Z,15.58
2022-07-30T02:37:43.510Z,15.56
2022-07-30T02:40:16.886Z,15.56
2022-07-30T02:42:47.696Z,15.51
2022-07-30T02:45:21.078Z,15.49
2022-07-30T02:47:52.490Z,15.47
2022-07-30T02:50:23.112Z,15.48
2022-07-30T02:52:52.048Z,15.53
2022-07-30T02:55:24.933Z,15.52
2022-07-30T02:57:54.527Z,15.40
2022-07-30T03:00:25.385Z,15.48
2022-07-30T03:02:56.839Z,15.44
2022-07-30T03:05:26.827Z,15.50
2022-07-30T03:07:57.503Z,15.53
2022-07-30T03:10:27.030Z,15.55
2022-07-30T03:12:56.100Z,15.66
2022-07-30T03:15:26.769Z,15.62
2022-07-30T03:17:55.722Z,15.69
2022-07-30T03:20:29.119Z,15.64
2022-07-30T03:22:59.631Z,15.68
2022-07-30T03:25:31.928Z,15.56
2022-07-30T03:28:03.883Z,15.63
2022-07-30T03:30:35.484Z,15.52
2022-07-30T03:33:04.195Z,15.73
2022-07-30T03:35:33.221Z,15.65
2022-07-30T03:38:02.277Z,15.64
2022-07-30T03:40:31.186Z,15.67
2022-07-30T03:42:59.838Z,15.58
2022-07-30T03:45:28.188Z,15.60
2022-07-30T03:48:06.075Z,15.55
2022-07-30T03:50:36.454Z,15.55
2022-07-30T03:53:05.471Z,15.56
2022-07-30T03:55:36.254Z,15.56
2022-07-30T03:58:22.719Z,15.51
2022-07-30T04:00:52.319Z,15.51
2022-07-30T04:03:28.144Z,15.51
2022-07-30T04:06:00.536Z,15.50
2022-07-30T04:08:29.821Z,15.48
2022-07-30T04:10:57.821Z,15.42
2022-07-30T04:13:45.831Z,15.43
2022-07-30T04:16:41.319Z,15.44
2022-07-30T04:19:17.229Z,15.40
2022-07-30T04:21:47.964Z,15.39
2022-07-30T04:24:18.128Z,15.37
2022-07-30T04:26:47.395Z,15.32
2022-07-30T04:29:21.399Z,15.39
2022-07-30T04:31:53.697Z,15.41
2022-07-30T04:34:48.745Z,15.50
2022-07-30T04:37:24.153Z,15.50
2022-07-30T04:39:54.562Z,15.53
2022-07-30T04:42:22.861Z,15.48
2022-07-30T04:45:01.625Z,15.58
2022-07-30T04:47:34.978Z,15.56
2022-07-30T04:50:26.717Z,15.62
2022-07-30T04:52:57.016Z,15.69
2022-07-30T04:55:28.948Z,15.71
2022-07-30T04:57:59.266Z,15.73
2022-07-30T05:00:32.624Z,15.79
2022-07-30T05:03:04.519Z,15.81
2022-07-30T05:05:34.827Z,15.84
2022-07-30T05:08:03.719Z,15.87
2022-07-30T05:10:32.461Z,15.73
2022-07-30T05:13:01.494Z,15.91
2022-07-30T05:15:36.251Z,15.97
2022-07-30T05:18:07.384Z,15.83
2022-07-30T05:20:39.662Z,15.97
2022-07-30T05:23:17.088Z,15.91
2022-07-30T05:25:52.003Z,16.03
2022-07-30T05:28:30.017Z,16.11
2022-07-30T05:31:01.149Z,16.06
2022-07-30T05:33:41.221Z,16.01
2022-07-30T05:36:13.757Z,16.10
2022-07-30T05:38:41.743Z,16.10
2022-07-30T05:41:31.900Z,16.16
2022-07-30T05:44:11.604Z,16.12
2022-07-30T05:46:39.440Z,16.22
2022-07-30T05:49:07.370Z,16.20
2022-07-30T05:51:36.542Z,16.26
2022-07-30T05:54:05.229Z,16.17
2022-07-30T05:57:09.023Z,16.33
2022-07-30T05:59:39.221Z,16.33
2022-07-30T06:02:10.891Z,16.40
2022-07-30T06:04:56.753Z,16.43
2022-07-30T06:07:26.558Z,16.28
2022-07-30T06:09:59.978Z,16.37
2022-07-30T06:12:28.553Z,16.54
2022-07-30T06:14:56.540Z,16.55
2022-07-30T06:17:30.005Z,16.46
2022-07-30T06:20:10.833Z,16.79
2022-07-30T06:22:52.113Z,16.75
2022-07-30T06:25:40.994Z,16.75
2022-07-30T06:28:34.717Z,16.67
2022-07-30T06:30:57.774Z,16.52
2022-07-30T06:33:28.411Z,16.32
2022-07-30T06:35:56.480Z,16.39
2022-07-30T06:38:29.269Z,16.35
2022-07-30T06:41:04.581Z,16.44
2022-07-30T06:43:50.909Z,16.37
2022-07-30T06:46:37.482Z,16.46
2022-07-30T06:49:05.435Z,16.38
2022-07-30T06:51:33.856Z,16.52
2022-07-30T06:54:03.312Z,16.64
2022-07-30T06:56:37.303Z,16.62
2022-07-30T06:59:07.683Z,16.61
2022-07-30T07:01:57.224Z,16.93
2022-07-30T07:04:25.009Z,16.97
2022-07-30T07:06:53.385Z,17.00
2022-07-30T07:09:31.319Z,17.11
2022-07-30T07:12:40.853Z,17.23
2022-07-30T07:15:11.091Z,17.26
2022-07-30T07:17:40.407Z,17.36
2022-07-30T07:20:22.373Z,17.32
2022-07-30T07:22:57.589Z,17.41
2022-07-30T07:25:28.427Z,17.56
2022-07-30T07:28:12.237Z,17.61
2022-07-30T07:30:44.159Z,17.79
2022-07-30T07:33:16.332Z,17.82
2022-07-30T07:35:49.453Z,17.90
2022-07-30T07:38:24.647Z,17.99
2022-07-30T07:40:59.114Z,18.15
2022-07-30T07:43:28.420Z,18.12
2022-07-30T07:45:59.554Z,18.26
2022-07-30T07:48:31.001Z,18.32
2022-07-30T07:51:46.665Z,18.18
2022-07-30T07:54:21.610Z,18.23
2022-07-30T07:56:53.005Z,18.19
2022-07-30T07:59:35.901Z,18.51
2022-07-30T08:02:09.656Z,18.66
2022-07-30T08:04:54.242Z,18.78
2022-07-30T08:07:27.718Z,19.04
2022-07-30T08:10:30.763Z,19.15
2022-07-30T08:13:52.247Z,19.37
2022-07-30T08:16:35.061Z,19.54
2022-07-30T08:19:38.065Z,19.55
2022-07-30T08:22:16.613Z,20.26
2022-07-30T08:24:45.487Z,20.38
2022-07-30T08:27:13.206Z,20.27
2022-07-30T08:29:42.377Z,20.07
2022-07-30T08:32:10.711Z,19.99
2022-07-30T08:34:40.756Z,20.19
2022-07-30T08:37:09.434Z,19.99
2022-07-30T08:39:37.814Z,19.85
2022-07-30T08:42:06.187Z,19.80
2022-07-30T08:44:36.249Z,19.83
2022-07-30T08:47:08.667Z,19.83
2022-07-30T08:50:16.750Z,19.76
2022-07-30T08:53:05.031Z,19.66
2022-07-30T08:55:33.647Z,19.76
2022-07-30T08:58:01.543Z,19.84
2022-07-30T09:00:31.346Z,19.84
2022-07-30T09:03:01.990Z,19.77
2022-07-30T09:05:29.817Z,19.79
2022-07-30T09:07:57.847Z,19.80
2022-07-30T09:10:26.824Z,19.72
2022-07-30T09:12:54.715Z,19.77
2022-07-30T09:15:23.610Z,19.81
2022-07-30T09:17:55.711Z,19.96
2022-07-30T09:20:27.474Z,19.98
2022-07-30T09:22:57.120Z,19.94
2022-07-30T09:25:45.086Z,20.09
2022-07-30T09:28:42.882Z,20.00
2022-07-30T09:31:17.250Z,20.17
2022-07-30T09:34:03.788Z,20.16
2022-07-30T09:37:03.856Z,20.13
2022-07-30T09:39:59.014Z,20.34
2022-07-30T09:43:05.273Z,20.35
2022-07-30T09:45:34.888Z,20.20
2022-07-30T09:48:03.609Z,20.35
2022-07-30T09:50:31.287Z,20.41
2022-07-30T09:53:09.676Z,20.54
2022-07-30T09:55:42.300Z,20.64
2022-07-30T09:58:26.584Z,20.74
2022-07-30T10:00:59.602Z,20.73
2022-07-30T10:03:44.002Z,20.70
2022-07-30T10:06:34.390Z,20.79
2022-07-30T10:09:13.719Z,20.82
2022-07-30T10:11:44.796Z,20.87
2022-07-30T10:14:13.510Z,20.93
2022-07-30T10:16:42.018Z,20.94
2022-07-30T10:19:18.061Z,21.14
2022-07-30T10:22:11.619Z,21.17
2022-07-30T10:25:07.711Z,21.15
2022-07-30T10:27:57.773Z,21.37
2022-07-30T10:30:31.845Z,21.22
2022-07-30T10:33:01.555Z,21.16
2022-07-30T10:35:34.698Z,21.03
2022-07-30T10:38:13.933Z,21.24
2022-07-30T10:40:49.242Z,21.41
2022-07-30T10:43:48.179Z,21.69
2022-07-30T10:46:29.747Z,21.94
2022-07-30T10:49:11.830Z,22.09
2022-07-30T10:51:48.533Z,21.95
2022-07-30T10:54:40.211Z,22.20
2022-07-30T10:57:15.074Z,22.43
2022-07-30T11:00:15.588Z,22.48
2022-07-30T11:03:14.999Z,22.62
2022-07-30T11:05:45.893Z,22.95
2022-07-30T11:08:37.546Z,22.93
2022-07-30T11:12:01.334Z,22.60
2022-07-30T11:15:06.489Z,22.59
2022-07-30T11:18:01.912Z,22.49
2022-07-30T11:20:30.770Z,22.35
2022-07-30T11:23:12.726Z,22.09
2022-07-30T11:25:51.034Z,21.86
2022-07-30T11:28:41.080Z,22.22
2022-07-30T11:31:30.709Z,22.20
2022-07-30T11:34:30.747Z,22.20
2022-07-30T11:37:21.903Z,22.20
2022-07-30T11:40:13.034Z,22.04
2022-07-30T11:42:43.262Z,22.20
2022-07-30T11:45:23.253Z,22.63
2022-07-30T11:47:54.430Z,23.05
2022-07-30T11:50:23.984Z,23.46
2022-07-30T11:52:52.646Z,23.63
2022-07-30T11:55:25.423Z,23.78
2022-07-30T11:57:53.505Z,23.76
2022-07-30T12:00:21.364Z,23.82
2022-07-30T12:05:25.192Z,23.68
2022-07-30T12:07:56.901Z,23.65
2022-07-30T12:10:26.781Z,23.39
2022-07-30T12:13:08.124Z,23.35
2022-07-30T12:15:38.037Z,23.41
2022-07-30T12:18:24.548Z,23.03
2022-07-30T12:21:00.599Z,23.17
2022-07-30T12:23:29.235Z,23.05
2022-07-30T12:25:58.139Z,23.12
2022-07-30T12:28:27.809Z,23.06
2022-07-30T12:30:56.846Z,23.05
2022-07-30T12:33:25.866Z,23.11
2022-07-30T12:35:55.097Z,23.07
2022-07-30T12:38:26.343Z,22.99
2022-07-30T12:40:59.585Z,22.90
2022-07-30T12:43:48.035Z,22.98
2022-07-30T12:46:17.843Z,23.05
2022-07-30T12:49:05.717Z,23.04
2022-07-30T12:51:52.176Z,23.15
2022-07-30T12:54:29.838Z,23.12
2022-07-30T12:57:00.363Z,23.03
2022-07-30T12:59:29.196Z,23.25
2022-07-30T13:02:00.300Z,23.21
2022-07-30T13:04:28.606Z,23.16
2022-07-30T13:07:07.573Z,22.89
2022-07-30T13:09:37.372Z,22.95
2022-07-30T13:12:06.269Z,22.98
2022-07-30T13:14:34.278Z,23.06
2022-07-30T13:17:04.297Z,23.19
2022-07-30T13:19:32.555Z,23.25
2022-07-30T13:22:00.289Z,23.20
2022-07-30T13:24:27.937Z,23.20
2022-07-30T13:26:57.310Z,23.34
2022-07-30T13:29:24.926Z,23.40
2022-07-30T13:31:52.742Z,23.41
2022-07-30T13:34:20.643Z,23.40
2022-07-30T13:36:48.302Z,23.28
2022-07-30T13:39:15.922Z,23.22
2022-07-30T13:41:43.686Z,23.23
2022-07-30T13:44:12.721Z,23.37
2022-07-30T13:46:41.426Z,23.41
2022-07-30T13:49:09.356Z,23.23
2022-07-30T13:51:37.149Z,23.11
2022-07-30T13:54:05.068Z,23.27
2022-07-30T13:56:32.749Z,23.18
2022-07-30T13:59:00.645Z,23.22
2022-07-30T14:01:29.817Z,23.39
2022-07-30T14:03:57.539Z,23.22
2022-07-30T14:06:25.305Z,23.12
2022-07-30T14:08:52.985Z,22.99
2022-07-30T14:11:20.672Z,22.93
2022-07-30T14:13:48.310Z,22.76
2022-07-30T14:16:42.287Z,22.72
2022-07-30T14:19:05.091Z,22.59
2022-07-30T14:21:32.810Z,22.59
2022-07-30T14:24:00.458Z,22.61
